Time;durP1;ratioP1;P1;durP2;ratioP2;P2;SDS_P1;SDS_P2;PMS_P1;PMS_P2;Temp;Humidity;BMP_temperature;BMP_pressure;BME280_temperature;BME280_humidity;BME280_pressure;Samples;Min_cycle;Max_cycle;Signal;HPM_P1;HPM_P2
2023/01/16 00:01:23;;;;;;;2.40;0.60;;;4.60;1.00;;;;;;5090232;28;20473;-72
2023/01/16 00:03:50;;;;;;;2.03;1.33;;;4.50;1.00;;;;;;5091221;28;20445;-72
2023/01/16 00:06:17;;;;;;;5.00;1.33;;;4.50;1.00;;;;;;5091181;28;20440;-73
2023/01/16 00:08:46;;;;;;;7.37;1.10;;;4.50;1.00;;;;;;5091358;28;20437;-72
2023/01/16 00:11:13;;;;;;;4.30;1.30;;;4.50;1.00;;;;;;5084616;28;20450;-72
2023/01/16 00:13:40;;;;;;;4.93;1.43;;;4.50;1.00;;;;;;5091179;28;20541;-72
2023/01/16 00:16:07;;;;;;;1.30;1.20;;;4.70;1.00;;;;;;5091460;28;20861;-72
2023/01/16 00:18:35;;;;;;;1.30;0.87;;;4.50;1.00;;;;;;5089660;28;20666;-72
2023/01/16 00:21:01;;;;;;;1.37;1.20;;;4.60;1.00;;;;;;5091524;28;20463;-72
2023/01/16 00:23:28;;;;;;;1.67;1.10;;;4.70;1.00;;;;;;5089849;28;20474;-72
2023/01/16 00:25:56;;;;;;;2.00;1.13;;;4.70;1.00;;;;;;5090986;28;20442;-72
2023/01/16 00:28:23;;;;;;;2.23;1.23;;;4.70;1.00;;;;;;5089632;28;20950;-72
2023/01/16 00:30:50;;;;;;;2.50;1.47;;;4.80;1.00;;;;;;5091314;28;20449;-72
2023/01/16 00:33:18;;;;;;;3.40;1.80;;;4.60;1.00;;;;;;5090204;28;20450;-73
2023/01/16 00:35:44;;;;;;;1.20;0.80;;;4.60;1.00;;;;;;5091259;28;20759;-72
2023/01/16 00:38:11;;;;;;;4.07;0.83;;;4.50;1.00;;;;;;5091276;28;20445;-72
2023/01/16 00:40:38;;;;;;;3.27;1.20;;;4.60;1.00;;;;;;5097660;28;20445;-72
2023/01/16 00:43:07;;;;;;;1.20;0.93;;;4.60;1.00;;;;;;5097592;28;20578;-72
2023/01/16 00:45:33;;;;;;;2.33;1.03;;;4.60;1.00;;;;;;5097617;28;20461;-71
2023/01/16 00:48:00;;;;;;;1.57;0.70;;;4.60;1.00;;;;;;5097028;28;20462;-71
2023/01/16 00:50:27;;;;;;;1.13;0.90;;;4.60;1.00;;;;;;5095402;28;20527;-71
2023/01/16 00:52:54;;;;;;;1.00;0.50;;;4.60;1.00;;;;;;5095879;28;20536;-71
2023/01/16 00:55:20;;;;;;;3.50;1.40;;;4.70;1.00;;;;;;5094336;28;20467;-71
2023/01/16 00:57:47;;;;;;;1.07;0.70;;;4.70;1.00;;;;;;5092694;28;20524;-72
2023/01/16 01:00:17;;;;;;;4.83;1.07;;;4.60;1.00;;;;;;5091468;28;20891;-73
2023/01/16 01:02:44;;;;;;;2.23;1.70;;;4.40;1.00;;;;;;5089222;28;20472;-72
2023/01/16 01:05:11;;;;;;;5.43;1.60;;;4.30;1.00;;;;;;5090990;28;20446;-71
2023/01/16 01:07:38;;;;;;;1.57;1.07;;;4.20;1.00;;;;;;5089787;28;20945;-72
2023/01/16 01:10:05;;;;;;;2.90;1.20;;;4.10;99.90;;;;;;5090478;28;20959;-72
2023/01/16 01:12:32;;;;;;;3.33;0.60;;;4.20;99.90;;;;;;5089936;28;20757;-72
2023/01/16 01:14:59;;;;;;;1.50;0.77;;;4.20;99.90;;;;;;5090169;28;20468;-72
2023/01/16 01:17:27;;;;;;;1.20;0.90;;;3.90;1.00;;;;;;5089479;28;20437;-72
2023/01/16 01:19:54;;;;;;;3.57;0.80;;;4.00;99.90;;;;;;5090537;28;20435;-72
2023/01/16 01:22:21;;;;;;;1.40;0.83;;;3.90;99.90;;;;;;5089498;28;20501;-72
2023/01/16 01:24:49;;;;;;;0.70;0.50;;;3.90;1.00;;;;;;5090505;28;20784;-73
2023/01/16 01:27:16;;;;;;;25.13;1.27;;;3.80;1.00;;;;;;5089283;28;20451;-74
2023/01/16 01:29:43;;;;;;;1.77;0.83;;;3.80;1.00;;;;;;5090478;28;20496;-72
2023/01/16 01:32:10;;;;;;;1.23;0.60;;;3.80;1.00;;;;;;5090334;28;20534;-73
2023/01/16 01:34:38;;;;;;;1.17;0.63;;;3.80;1.00;;;;;;5089879;28;20830;-73
2023/01/16 01:37:07;;;;;;;4.23;1.03;;;3.70;1.00;;;;;;5089788;28;20452;-73
2023/01/16 01:39:34;;;;;;;0.73;0.57;;;3.70;1.00;;;;;;5089619;28;20491;-73
2023/01/16 01:44:51;;;;;;;2.33;1.13;;;3.80;1.00;;;;;;5085452;28;20567;-72
2023/01/16 01:47:22;;;;;;;1.43;0.60;;;3.80;1.00;;;;;;5089442;28;20448;-73
2023/01/16 01:49:51;;;;;;;1.20;1.10;;;3.70;1.00;;;;;;5090024;28;20433;-73
2023/01/16 01:52:20;;;;;;;1.67;0.80;;;3.80;1.00;;;;;;5089434;28;20456;-73
2023/01/16 01:54:52;;;;;;;1.97;0.90;;;3.60;1.00;;;;;;5089592;28;21027;-72
2023/01/16 01:57:24;;;;;;;1.60;0.93;;;3.70;1.00;;;;;;5088572;28;20456;-73
2023/01/16 01:59:58;;;;;;;2.60;1.17;;;3.60;1.00;;;;;;5090402;28;20445;-73
2023/01/16 02:02:26;;;;;;;0.97;0.67;;;3.60;1.00;;;;;;5091954;28;20941;-73
2023/01/16 02:04:57;;;;;;;0.73;0.50;;;3.50;1.00;;;;;;5093729;28;20467;-73
2023/01/16 02:07:26;;;;;;;0.70;0.60;;;3.50;99.90;;;;;;5092663;28;20466;-73
2023/01/16 02:10:01;;;;;;;0.80;0.50;;;3.60;99.90;;;;;;5093211;28;20452;-73
2023/01/16 02:12:28;;;;;;;1.03;0.60;;;3.60;25.00;;;;;;5092788;28;20459;-73
2023/01/16 02:14:56;;;;;;;1.20;0.63;;;3.50;99.90;;;;;;5093318;28;20453;-72
2023/01/16 02:20:18;;;;;;;0.70;0.40;;;3.40;99.90;;;;;;5093346;28;20800;-73
2023/01/16 02:23:09;;;;;;;0.70;0.40;;;3.30;1.00;;;;;;5093283;28;20483;-73
2023/01/16 02:26:13;;;;;;;2.30;1.07;;;2.90;99.90;;;;;;5092535;28;20497;-72
2023/01/16 02:29:09;;;;;;;0.70;0.57;;;2.90;1.00;;;;;;5092106;28;20448;-73
2023/01/16 02:31:46;;;;;;;1.73;0.90;;;3.10;1.00;;;;;;5081291;28;20462;-73
2023/01/16 02:34:34;;;;;;;1.87;1.17;;;3.00;1.00;;;;;;5093068;28;20459;-73
2023/01/16 02:37:12;;;;;;;1.63;0.60;;;2.90;99.90;;;;;;5091321;28;20536;-73
2023/01/16 02:39:45;;;;;;;4.20;0.80;;;2.90;99.90;;;;;;5092344;28;20446;-73
2023/01/16 02:42:21;;;;;;;0.70;0.50;;;3.10;1.00;;;;;;5093428;28;20490;-73
2023/01/16 02:44:54;;;;;;;5.63;1.60;;;3.00;29.50;;;;;;5087947;28;20466;-73
2023/01/16 02:47:26;;;;;;;1.63;0.83;;;3.10;1.00;;;;;;5090887;28;20449;-73
2023/01/16 02:50:03;;;;;;;2.10;0.63;;;3.00;99.90;;;;;;5092654;28;20448;-72
2023/01/16 02:52:36;;;;;;;0.70;0.50;;;3.20;1.00;;;;;;5092433;28;20448;-73
2023/01/16 02:55:08;;;;;;;0.80;0.40;;;3.30;1.00;;;;;;5092618;28;20454;-73
2023/01/16 02:57:38;;;;;;;1.30;1.13;;;3.30;99.90;;;;;;5091575;28;20771;-72
2023/01/16 03:00:06;;;;;;;0.60;0.50;;;3.30;1.00;;;;;;5092547;28;20453;-73
2023/01/16 03:02:34;;;;;;;2.70;0.60;;;3.20;1.00;;;;;;5091552;28;20476;-73
2023/01/16 03:05:01;;;;;;;4.23;1.10;;;3.20;1.00;;;;;;5092572;28;20471;-72
2023/01/16 03:07:48;;;;;;;4.83;0.60;;;3.40;1.00;;;;;;5090974;28;20453;-73
2023/01/16 03:10:30;;;;;;;0.97;0.77;;;3.40;1.00;;;;;;5084346;28;20803;-74
2023/01/16 03:13:08;;;;;;;1.13;0.67;;;3.20;1.00;;;;;;5079553;28;20459;-73
2023/01/16 03:15:40;;;;;;;0.67;0.37;;;3.30;1.00;;;;;;5091616;28;20445;-73
2023/01/16 03:18:18;;;;;;;1.23;0.70;;;3.30;1.00;;;;;;5092142;28;20452;-72
2023/01/16 03:20:54;;;;;;;1.10;0.60;;;3.40;1.00;;;;;;5097843;28;20464;-73
2023/01/16 03:23:29;;;;;;;1.47;0.70;;;3.50;1.00;;;;;;5097818;28;20468;-73
2023/01/16 03:25:59;;;;;;;2.37;0.43;;;3.30;1.00;;;;;;5091130;28;20448;-73
2023/01/16 03:28:34;;;;;;;1.17;0.50;;;3.30;1.00;;;;;;5091249;28;20946;-73
2023/01/16 03:31:10;;;;;;;4.60;0.50;;;3.10;15.00;;;;;;5091817;28;20948;-73
2023/01/16 03:33:47;;;;;;;1.00;0.70;;;2.90;99.90;;;;;;5091252;28;20477;-73
2023/01/16 03:36:19;;;;;;;1.57;0.80;;;3.30;99.90;;;;;;5091822;28;20953;-72
2023/01/16 03:38:47;;;;;;;0.60;0.40;;;3.40;1.00;;;;;;5089491;28;20444;-73
2023/01/16 03:41:19;;;;;;;0.90;0.70;;;3.20;1.00;;;;;;5091716;28;20446;-73
2023/01/16 03:43:49;;;;;;;0.70;0.50;;;3.10;24.80;;;;;;5091696;28;20502;-73
2023/01/16 03:46:19;;;;;;;1.40;0.83;;;3.20;1.00;;;;;;5090661;28;20993;-73
2023/01/16 03:48:53;;;;;;;1.70;0.70;;;3.40;1.00;;;;;;5091764;28;20451;-73
2023/01/16 03:51:23;;;;;;;6.30;0.70;;;3.30;1.00;;;;;;5091217;28;20927;-73
2023/01/16 03:54:01;;;;;;;4.10;0.70;;;3.30;1.00;;;;;;5091922;28;20452;-73
2023/01/16 03:56:32;;;;;;;0.60;0.40;;;3.20;1.00;;;;;;5090751;28;20441;-73
2023/01/16 03:58:59;;;;;;;1.90;0.80;;;3.20;35.90;;;;;;5091511;28;20449;-73
2023/01/16 04:01:35;;;;;;;3.23;0.73;;;3.30;1.00;;;;;;5090901;28;20454;-73
2023/01/16 04:04:09;;;;;;;3.57;0.50;;;3.30;1.00;;;;;;5091392;28;20471;-73
2023/01/16 04:06:42;;;;;;;0.60;0.40;;;3.20;1.00;;;;;;5090493;28;20906;-72
2023/01/16 04:09:14;;;;;;;4.30;0.80;;;3.20;1.00;;;;;;5091676;28;20805;-73
2023/01/16 04:11:43;;;;;;;3.57;0.90;;;3.30;59.60;;;;;;5091608;28;20526;-73
2023/01/16 04:14:12;;;;;;;6.43;0.70;;;3.30;1.00;;;;;;5091549;28;20477;-73
2023/01/16 04:16:40;;;;;;;1.57;1.07;;;3.20;99.90;;;;;;5090377;28;20441;-73
2023/01/16 04:19:11;;;;;;;1.50;0.60;;;3.20;28.90;;;;;;5091357;28;20802;-71
2023/01/16 04:21:38;;;;;;;1.10;0.50;;;3.20;99.90;;;;;;5090994;28;20532;-71
2023/01/16 04:24:06;;;;;;;1.27;1.07;;;3.10;1.00;;;;;;5089699;28;20572;-72
2023/01/16 04:26:33;;;;;;;1.47;0.57;;;2.90;1.00;;;;;;5081648;28;20449;-71
2023/01/16 04:28:59;;;;;;;1.30;0.67;;;3.00;1.00;;;;;;5090980;28;20445;-71
2023/01/16 04:31:28;;;;;;;1.37;0.77;;;2.90;11.40;;;;;;5090212;28;20454;-71
2023/01/16 04:33:54;;;;;;;0.80;0.57;;;2.90;1.00;;;;;;5086982;28;20562;-72
2023/01/16 04:36:23;;;;;;;1.53;0.50;;;2.90;1.00;;;;;;5089655;28;20450;-72
2023/01/16 04:38:50;;;;;;;3.93;1.50;;;2.60;1.00;;;;;;5091114;28;20524;-72
2023/01/16 04:41:35;;;;;;;2.50;0.83;;;2.40;1.00;;;;;;5090490;28;20441;-72
2023/01/16 04:44:02;;;;;;;2.20;0.93;;;2.70;78.70;;;;;;5090622;28;20877;-72
2023/01/16 04:46:29;;;;;;;2.40;0.60;;;2.70;1.00;;;;;;5089328;28;20454;-72
2023/01/16 04:48:56;;;;;;;0.77;0.60;;;2.70;92.90;;;;;;5090208;28;20940;-72
2023/01/16 04:51:25;;;;;;;1.00;0.83;;;2.60;1.00;;;;;;5089918;28;20501;-72
2023/01/16 04:53:52;;;;;;;3.43;0.70;;;2.50;1.00;;;;;;5089693;28;20949;-72
2023/01/16 04:56:19;;;;;;;1.63;0.67;;;2.60;99.90;;;;;;5089869;28;20467;-72
2023/01/16 04:58:46;;;;;;;5.63;0.80;;;2.70;1.00;;;;;;5081395;28;20450;-72
2023/01/16 05:01:13;;;;;;;0.70;0.50;;;2.50;1.00;;;;;;5088119;28;20449;-72
2023/01/16 05:03:39;;;;;;;2.73;0.90;;;2.60;10.90;;;;;;5090059;28;20556;-72
2023/01/16 05:06:06;;;;;;;2.20;0.80;;;2.50;99.90;;;;;;5090108;28;20530;-72
2023/01/16 05:08:35;;;;;;;0.70;0.50;;;2.60;99.90;;;;;;5089710;28;20451;-72
2023/01/16 05:11:02;;;;;;;1.10;0.50;;;2.70;1.00;;;;;;5090523;28;20446;-72
2023/01/16 05:13:29;;;;;;;1.20;0.90;;;2.60;99.90;;;;;;5089926;28;20454;-72
2023/01/16 05:15:56;;;;;;;1.10;0.80;;;2.60;99.90;;;;;;5089869;28;20441;-72
2023/01/16 05:18:23;;;;;;;3.57;0.90;;;2.70;99.90;;;;;;5090189;28;20442;-72
2023/01/16 05:20:50;;;;;;;4.30;0.73;;;3.00;99.60;;;;;;5089933;28;20437;-72
2023/01/16 05:23:16;;;;;;;0.70;0.60;;;2.90;99.90;;;;;;5088839;28;20474;-72
2023/01/16 05:25:45;;;;;;;1.27;0.80;;;2.80;99.90;;;;;;5090415;28;20452;-72
2023/01/16 05:28:12;;;;;;;3.10;1.73;;;3.00;99.90;;;;;;5090811;28;20459;-71
2023/01/16 05:30:38;;;;;;;0.90;0.50;;;2.70;1.00;;;;;;5081664;28;20519;-72
2023/01/16 05:33:06;;;;;;;1.20;0.83;;;2.60;1.00;;;;;;5089893;28;20448;-72
2023/01/16 05:35:33;;;;;;;1.10;0.50;;;2.60;99.90;;;;;;5090252;28;20829;-72
2023/01/16 05:38:00;;;;;;;1.47;0.70;;;2.30;1.00;;;;;;5093667;28;20521;-72
2023/01/16 05:40:27;;;;;;;0.70;0.40;;;2.60;1.00;;;;;;5093702;28;20456;-72
2023/01/16 05:42:55;;;;;;;0.80;0.50;;;2.60;1.00;;;;;;5093698;28;20464;-72
2023/01/16 05:45:22;;;;;;;2.17;0.70;;;2.60;99.90;;;;;;5093551;28;20955;-72
2023/01/16 05:47:48;;;;;;;0.70;0.40;;;2.60;1.00;;;;;;5093959;28;20445;-71
2023/01/16 05:50:16;;;;;;;3.53;1.13;;;2.70;99.90;;;;;;5093977;28;20457;-72
2023/01/16 05:52:43;;;;;;;0.93;0.70;;;2.70;99.90;;;;;;5093403;28;20942;-72
2023/01/16 05:55:10;;;;;;;1.50;1.27;;;2.60;1.00;;;;;;5094436;28;20543;-72
2023/01/16 05:57:37;;;;;;;4.20;1.03;;;2.80;1.00;;;;;;5092749;28;20991;-72
2023/01/16 06:00:06;;;;;;;1.23;0.80;;;2.70;1.00;;;;;;5093936;28;20515;-71
2023/01/16 06:02:33;;;;;;;0.90;0.60;;;2.80;99.90;;;;;;5093203;28;20450;-71
2023/01/16 06:05:00;;;;;;;2.63;0.80;;;2.90;99.90;;;;;;5094847;28;20453;-70
2023/01/16 06:07:27;;;;;;;1.20;1.00;;;2.70;99.90;;;;;;5095151;28;20923;-71
2023/01/16 06:09:54;;;;;;;5.10;1.07;;;2.80;1.00;;;;;;5100519;28;20463;-71
2023/01/16 06:12:21;;;;;;;1.10;0.93;;;2.70;1.00;;;;;;5100264;28;20465;-72
2023/01/16 06:14:48;;;;;;;0.97;0.80;;;2.70;1.00;;;;;;5101094;28;20478;-71
2023/01/16 06:17:18;;;;;;;0.80;0.60;;;2.60;54.40;;;;;;5097724;28;20446;-73
2023/01/16 06:19:45;;;;;;;0.90;0.60;;;2.90;1.00;;;;;;5099472;28;20517;-72
2023/01/16 06:22:13;;;;;;;1.83;0.87;;;2.90;99.90;;;;;;5113537;28;20429;-71
2023/01/16 06:24:40;;;;;;;0.90;0.60;;;3.00;99.90;;;;;;5099687;28;20574;-71
2023/01/16 06:27:07;;;;;;;2.40;0.70;;;3.00;4.60;;;;;;5096890;28;20476;-71
2023/01/16 06:29:34;;;;;;;2.60;1.47;;;3.20;1.00;;;;;;5094013;28;20472;-72
2023/01/16 06:32:01;;;;;;;3.33;1.13;;;3.20;1.00;;;;;;5093679;28;20445;-72
2023/01/16 06:34:29;;;;;;;2.80;1.23;;;3.30;99.90;;;;;;5092947;28;20486;-72
2023/01/16 06:36:56;;;;;;;3.70;1.37;;;3.40;99.90;;;;;;5093423;28;20445;-71
2023/01/16 06:39:23;;;;;;;0.97;0.60;;;3.40;99.90;;;;;;5093276;28;20448;-72
2023/01/16 06:41:50;;;;;;;1.07;0.97;;;3.50;6.50;;;;;;5093517;28;20445;-71
2023/01/16 06:44:17;;;;;;;1.47;0.93;;;3.60;1.00;;;;;;5092289;28;20469;-72
2023/01/16 06:46:43;;;;;;;0.90;0.70;;;3.70;1.00;;;;;;5093168;28;20521;-72
2023/01/16 06:49:12;;;;;;;0.87;0.50;;;3.70;1.00;;;;;;5092278;28;20532;-72
2023/01/16 06:51:41;;;;;;;1.07;0.50;;;3.70;1.00;;;;;;5092188;28;20449;-72
2023/01/16 06:54:09;;;;;;;0.87;0.60;;;3.80;1.00;;;;;;5080343;28;20488;-71
2023/01/16 06:56:36;;;;;;;0.90;0.50;;;3.90;1.00;;;;;;5086944;28;20965;-71
2023/01/16 06:59:03;;;;;;;0.80;0.60;;;3.80;1.00;;;;;;5093508;28;20447;-71
2023/01/16 07:01:30;;;;;;;5.97;1.30;;;3.90;1.00;;;;;;5088514;28;20497;-72
2023/01/16 07:03:57;;;;;;;1.40;1.00;;;3.80;1.00;;;;;;5086741;28;20449;-72
2023/01/16 07:06:23;;;;;;;1.43;0.70;;;3.80;1.00;;;;;;5092247;28;20955;-72
2023/01/16 07:08:53;;;;;;;1.33;0.70;;;3.80;1.00;;;;;;5090744;28;20449;-72
2023/01/16 07:11:20;;;;;;;5.03;0.80;;;3.80;1.00;;;;;;5091546;28;20487;-72
2023/01/16 07:13:47;;;;;;;4.10;1.23;;;3.80;1.00;;;;;;5092431;28;20481;-72
2023/01/16 07:24:36;;;;;;;3.13;0.93;;;3.80;1.00;;;;;;5092444;28;20477;-71
2023/01/16 07:27:08;;;;;;;1.20;1.10;;;3.90;1.00;;;;;;5083828;28;20553;-71
2023/01/16 07:29:36;;;;;;;1.90;1.20;;;3.80;1.00;;;;;;5091924;28;20484;-72
2023/01/16 07:32:04;;;;;;;1.27;0.60;;;3.90;1.00;;;;;;5090823;28;20450;-72
2023/01/16 07:34:31;;;;;;;2.03;0.73;;;3.80;1.00;;;;;;5083761;28;20520;-71
2023/01/16 07:36:58;;;;;;;1.17;0.50;;;3.80;1.00;;;;;;5090885;28;20449;-71
2023/01/16 07:39:25;;;;;;;4.43;1.50;;;3.90;1.00;;;;;;5085456;28;20806;-72
2023/01/16 07:41:53;;;;;;;1.40;0.70;;;3.90;1.00;;;;;;5092234;28;20455;-71
2023/01/16 07:44:20;;;;;;;1.13;0.73;;;3.80;1.00;;;;;;5091421;28;20477;-73
2023/01/16 07:46:46;;;;;;;1.17;0.70;;;3.90;1.00;;;;;;5080050;28;20483;-73
2023/01/16 07:49:13;;;;;;;1.53;0.77;;;4.00;1.00;;;;;;5091824;28;20529;-71
2023/01/16 07:51:40;;;;;;;1.13;0.63;;;4.00;1.00;;;;;;5091480;28;20472;-71
2023/01/16 07:54:09;;;;;;;2.83;1.20;;;4.00;1.00;;;;;;5090808;28;21295;-71
2023/01/16 07:56:35;;;;;;;2.10;1.17;;;4.10;1.00;;;;;;5091545;28;20530;-71
2023/01/16 07:59:04;;;;;;;0.90;0.70;;;4.10;1.00;;;;;;5092117;28;20439;-71
2023/01/16 08:01:30;;;;;;;1.17;0.60;;;4.10;1.00;;;;;;5091723;28;20454;-71
2023/01/16 08:03:57;;;;;;;0.90;0.60;;;4.20;1.00;;;;;;5091780;28;20543;-71
2023/01/16 08:06:24;;;;;;;0.80;0.53;;;4.20;1.00;;;;;;5090546;28;20458;-71
2023/01/16 08:08:51;;;;;;;2.10;0.80;;;4.20;99.90;;;;;;5091504;28;20451;-71
2023/01/16 08:11:38;;;;;;;3.23;1.27;;;4.30;99.90;;;;;;5084956;28;20483;-72
2023/01/16 08:14:07;;;;;;;0.70;0.70;;;4.40;1.00;;;;;;5089360;28;20472;-72
2023/01/16 08:16:34;;;;;;;0.70;0.50;;;4.50;99.90;;;;;;5086155;28;20450;-72
2023/01/16 08:19:01;;;;;;;3.23;1.03;;;4.40;99.90;;;;;;5087927;28;20447;-73
2023/01/16 08:21:28;;;;;;;4.00;1.00;;;4.60;99.90;;;;;;5088393;28;20956;-71
2023/01/16 08:23:55;;;;;;;1.27;1.00;;;5.00;99.90;;;;;;5089150;28;20456;-71
2023/01/16 08:26:21;;;;;;;1.87;0.77;;;4.90;99.90;;;;;;5088146;28;20447;-72
2023/01/16 08:28:48;;;;;;;3.70;0.67;;;4.60;99.90;;;;;;5087499;28;20453;-72
2023/01/16 08:31:17;;;;;;;0.83;0.60;;;4.90;99.90;;;;;;5088896;28;20461;-73
2023/01/16 08:33:45;;;;;;;1.37;0.87;;;4.70;99.90;;;;;;5088810;28;20456;-72
2023/01/16 08:36:15;;;;;;;1.03;0.60;;;4.80;99.90;;;;;;5089150;28;20451;-72
2023/01/16 08:38:42;;;;;;;1.20;0.70;;;4.80;99.90;;;;;;5089541;28;20485;-72
2023/01/16 08:51:21;;;;;;;0.93;0.50;;;4.80;99.90;;;;;;5089139;28;20460;-72
2023/01/16 08:52:12;;;;;;;0.70;0.50;;;4.90;99.90;;;;;;5087769;28;20432;-72
2023/01/16 08:54:39;;;;;;;0.80;0.53;;;4.90;99.90;;;;;;5088608;28;20487;-72
2023/01/16 08:57:06;;;;;;;1.47;0.67;;;4.90;99.90;;;;;;5088394;28;20525;-72
2023/01/16 08:59:34;;;;;;;1.20;0.50;;;4.90;99.90;;;;;;5087964;28;20458;-72
2023/01/16 09:02:03;;;;;;;1.00;0.70;;;5.00;99.90;;;;;;5084677;28;20458;-73
2023/01/16 09:04:30;;;;;;;0.80;0.60;;;5.10;99.90;;;;;;5087354;28;20457;-72
2023/01/16 09:06:57;;;;;;;2.10;0.70;;;5.20;99.90;;;;;;5089365;28;20446;-72
2023/01/16 09:09:25;;;;;;;1.90;0.90;;;5.30;99.90;;;;;;5090575;28;20542;-72
2023/01/16 09:14:40;;;;;;;1.37;0.60;;;5.40;99.90;;;;;;5088229;28;20503;-74
2023/01/16 09:17:08;;;;;;;0.70;0.50;;;5.30;99.90;;;;;;5090227;28;20823;-71
2023/01/16 09:19:36;;;;;;;1.17;0.70;;;5.30;99.90;;;;;;5090751;28;20501;-71
2023/01/16 09:22:05;;;;;;;1.00;0.60;;;5.20;99.90;;;;;;5090587;28;20446;-71
2023/01/16 09:24:32;;;;;;;0.70;0.47;;;5.20;99.90;;;;;;5090445;28;20813;-70
2023/01/16 09:26:59;;;;;;;0.80;0.50;;;5.30;99.90;;;;;;5090113;28;20451;-70
2023/01/16 09:29:27;;;;;;;0.87;0.63;;;5.20;99.90;;;;;;5089644;28;20450;-72
2023/01/16 09:31:54;;;;;;;0.83;0.50;;;5.50;99.90;;;;;;5090030;28;20936;-73
2023/01/16 09:34:22;;;;;;;0.70;0.50;;;5.50;99.90;;;;;;5090111;28;20485;-72
2023/01/16 09:36:49;;;;;;;0.90;0.60;;;5.60;99.90;;;;;;5090486;28;20448;-72
2023/01/16 09:39:16;;;;;;;6.23;1.57;;;5.70;99.90;;;;;;5090287;28;20444;-73
2023/01/16 09:44:43;;;;;;;0.70;0.40;;;5.80;99.90;;;;;;5090705;28;20498;-73
2023/01/16 09:47:10;;;;;;;1.00;0.60;;;5.80;99.90;;;;;;5090190;28;20451;-73
2023/01/16 09:49:48;;;;;;;1.50;0.80;;;5.80;99.90;;;;;;5089695;28;20512;-73
2023/01/16 10:00:47;;;;;;;1.53;0.90;;;5.90;99.90;;;;;;5084563;28;20447;-73
2023/01/16 10:03:14;;;;;;;0.60;0.50;;;5.90;99.90;;;;;;5090627;28;20456;-72
2023/01/16 10:05:49;;;;;;;1.60;1.50;;;6.00;99.90;;;;;;5090076;28;20459;-72
2023/01/16 10:08:22;;;;;;;0.60;0.40;;;6.00;99.90;;;;;;5089653;28;20432;-73
2023/01/16 10:10:55;;;;;;;0.60;0.40;;;6.10;99.90;;;;;;5089979;28;20894;-72
2023/01/16 10:13:40;;;;;;;1.20;0.40;;;6.00;99.90;;;;;;5090144;28;20449;-72
2023/01/16 10:16:15;;;;;;;0.60;0.40;;;6.00;99.90;;;;;;5086449;28;20654;-73
2023/01/16 10:18:51;;;;;;;0.60;0.40;;;6.10;99.90;;;;;;5085182;28;20816;-72
2023/01/16 10:21:38;;;;;;;0.90;0.70;;;6.10;99.90;;;;;;5089093;28;20986;-72
2023/01/16 10:24:14;;;;;;;0.83;0.53;;;6.20;99.90;;;;;;5092635;28;21263;-72
2023/01/16 10:26:56;;;;;;;0.80;0.57;;;6.10;99.90;;;;;;5093633;28;20802;-72
2023/01/16 10:29:28;;;;;;;0.60;0.40;;;6.20;99.90;;;;;;5093353;28;20444;-72
2023/01/16 10:31:59;;;;;;;2.77;0.70;;;6.20;99.90;;;;;;5093395;28;20456;-72
2023/01/16 10:34:31;;;;;;;0.60;0.40;;;6.30;99.90;;;;;;5093073;28;20443;-72
2023/01/16 10:37:01;;;;;;;0.80;0.57;;;6.30;99.90;;;;;;5093388;28;20448;-72
2023/01/16 10:39:33;;;;;;;0.60;0.40;;;6.40;99.90;;;;;;5093310;28;20532;-72
2023/01/16 10:50:30;;;;;;;1.40;0.70;;;6.60;99.90;;;;;;5092766;28;20846;-72
2023/01/16 10:52:58;;;;;;;0.70;0.50;;;6.60;99.90;;;;;;5093300;28;20447;-72
2023/01/16 10:55:25;;;;;;;1.20;0.70;;;6.60;99.90;;;;;;5091552;28;20998;-72
2023/01/16 10:57:55;;;;;;;0.60;0.40;;;6.60;99.90;;;;;;5093181;28;20459;-72
2023/01/16 11:00:28;;;;;;;6.77;0.57;;;6.70;99.90;;;;;;5092016;28;20450;-77
2023/01/16 11:02:59;;;;;;;0.80;0.50;;;6.70;99.90;;;;;;5092513;28;20452;-71
2023/01/16 11:05:27;;;;;;;1.03;0.67;;;;;;;;;;5091898;28;20449;-71
2023/01/16 11:07:54;;;;;;;0.60;0.40;;;;;;;;;;5093265;28;20440;-71
2023/01/16 11:10:23;;;;;;;3.27;0.60;;;;;;;;;;5092533;28;20460;-71
2023/01/16 11:18:30;;;;;;;0.80;0.43;;;;;;;;;;5091008;28;20433;-74
2023/01/16 11:20:58;;;;;;;1.00;0.50;;;;;;;;;;5083034;28;20502;-74
2023/01/16 11:23:27;;;;;;;0.60;0.50;;;;;;;;;;5091216;28;20795;-72
2023/01/16 11:25:57;;;;;;;0.83;0.53;;;;;;;;;;5089197;28;20450;-72
2023/01/16 11:28:26;;;;;;;0.60;0.40;;;;;;;;;;5088169;28;20442;-72
2023/01/16 11:30:55;;;;;;;0.60;0.40;;;;;;;;;;5090452;28;20458;-72
2023/01/16 11:33:23;;;;;;;0.63;0.47;;;;;;;;;;5087006;28;20543;-72
2023/01/16 11:35:53;;;;;;;0.60;0.50;;;;;;;;;;5089878;28;20480;-71
2023/01/16 11:38:21;;;;;;;0.70;0.40;;;;;;;;;;5086412;28;20452;-72
2023/01/16 11:40:49;;;;;;;1.03;0.53;;;;;;;;;;5086891;28;20444;-72
2023/01/16 11:46:11;;;;;;;0.70;0.50;;;;;;;;;;5086883;28;20431;-72
2023/01/16 11:48:40;;;;;;;1.47;0.60;;;;;;;;;;5088712;28;20454;-72
2023/01/16 11:51:07;;;;;;;0.60;0.40;;;;;;;;;;5089116;28;20524;-72
2023/01/16 11:53:36;;;;;;;0.70;0.50;;;;;;;;;;5089429;28;20469;-72
2023/01/16 11:56:18;;;;;;;0.60;0.47;;;;;;;;;;5089097;28;20487;-72
2023/01/16 11:58:53;;;;;;;1.30;0.50;;;;;;;;;;5064066;28;20456;-72
2023/01/16 12:01:23;;;;;;;0.67;0.50;;;;;;;;;;5089160;28;20538;-72
2023/01/16 12:03:56;;;;;;;0.70;0.50;;;;;;;;;;5089801;28;20444;-71
2023/01/16 12:06:29;;;;;;;0.60;0.40;;;;;;;;;;5088955;28;20460;-72
2023/01/16 12:09:10;;;;;;;1.43;0.67;;;;;;;;;;5089405;28;20447;-72
2023/01/16 12:11:43;;;;;;;0.60;0.30;;;;;;;;;;5088246;28;20802;-72
2023/01/16 12:14:20;;;;;;;0.60;0.40;;;;;;;;;;5084264;28;20444;-72
2023/01/16 12:16:52;;;;;;;0.60;0.43;;;;;;;;;;5080852;28;21003;-72
2023/01/16 12:19:30;;;;;;;0.60;0.40;;;;;;;;;;5088389;28;21007;-72
2023/01/16 12:22:03;;;;;;;1.20;0.70;;;;;;;;;;5089179;28;20442;-72
2023/01/16 12:24:35;;;;;;;2.10;0.50;;;;;;;;;;5089084;28;20456;-72
2023/01/16 12:27:08;;;;;;;0.80;0.40;;;;;;;;;;5088702;28;20447;-72
2023/01/16 12:29:43;;;;;;;0.80;0.60;;;;;;;;;;5088355;28;20687;-72
2023/01/16 12:32:25;;;;;;;1.00;0.50;;;;;;;;;;5085275;28;20442;-72
2023/01/16 12:35:03;;;;;;;0.63;0.40;;;;;;;;;;5086252;28;20469;-74
2023/01/16 12:37:37;;;;;;;0.80;0.50;;;;;;;;;;5088253;28;20434;-73
2023/01/16 12:40:13;;;;;;;2.60;1.60;;;;;;;;;;5088521;28;20948;-73
2023/01/16 12:45:37;;;;;;;0.77;0.40;;;;;;;;;;5084985;28;20433;-73
2023/01/16 12:48:10;;;;;;;0.60;0.40;;;;;;;;;;5088155;28;20467;-72
2023/01/16 12:50:48;;;;;;;1.00;0.63;;;;;;;;;;5088353;28;20449;-72
2023/01/16 12:53:24;;;;;;;1.23;0.40;;;;;;;;;;5088377;28;20448;-72
2023/01/16 12:55:57;;;;;;;1.23;0.50;;;;;;;;;;5087969;28;20503;-73
2023/01/16 12:58:27;;;;;;;0.70;0.70;;;;;;;;;;5082928;28;20446;-72
2023/01/16 13:00:59;;;;;;;0.60;0.40;;;;;;;;;;5088190;28;20444;-72
2023/01/16 13:03:28;;;;;;;0.60;0.40;;;;;;;;;;5088072;28;20449;-72
2023/01/16 13:05:58;;;;;;;1.17;0.50;;;;;;;;;;5087625;28;20452;-73
2023/01/16 13:08:27;;;;;;;0.60;0.40;;;;;;;;;;5088315;28;20463;-73
2023/01/16 13:13:44;;;;;;;0.70;0.60;;;;;;;;;;5087914;28;20466;-73
2023/01/16 13:16:15;;;;;;;2.03;0.47;;;;;;;;;;5087698;28;20837;-73
2023/01/16 13:18:45;;;;;;;0.90;0.50;;;;;;;;;;5088701;28;20447;-73
2023/01/16 13:21:15;;;;;;;0.80;0.60;;;;;;;;;;5088698;28;20452;-73
2023/01/16 13:23:46;;;;;;;0.80;0.40;;;;;;;;;;5088723;28;20484;-74
2023/01/16 13:26:15;;;;;;;0.80;0.77;;;;;;;;;;5088079;28;20443;-73
2023/01/16 13:28:45;;;;;;;0.70;0.40;;;;;;;;;;5088469;28;20454;-74
2023/01/16 13:31:20;;;;;;;1.00;0.50;;;;;;;;;;5088755;28;20458;-73
2023/01/16 13:33:49;;;;;;;0.70;0.50;;;;;;;;;;5087745;28;20441;-73
2023/01/16 13:36:25;;;;;;;0.60;0.40;;;;;;;;;;5086452;28;20477;-74
2023/01/16 13:39:04;;;;;;;0.70;0.50;;;6.70;99.90;;;;;;5077296;28;20444;-74
2023/01/16 13:41:34;;;;;;;0.97;0.40;;;8.50;99.90;;;;;;5087867;28;20477;-75
2023/01/16 13:46:53;;;;;;;0.67;0.47;;;8.50;99.90;;;;;;5087703;28;20551;-75
2023/01/16 13:49:24;;;;;;;0.60;0.30;;;8.40;99.90;;;;;;5086643;28;20455;-74
2023/01/16 13:51:53;;;;;;;1.10;0.60;;;8.50;99.90;;;;;;5088179;28;20437;-74
2023/01/16 13:54:23;;;;;;;0.60;0.40;;;8.50;99.90;;;;;;5087439;28;20460;-74
2023/01/16 13:56:58;;;;;;;0.70;0.40;;;8.50;99.90;;;;;;5077015;28;20867;-74
2023/01/16 13:59:41;;;;;;;0.60;0.43;;;8.40;99.90;;;;;;5091394;28;20457;-73
2023/01/16 14:02:26;;;;;;;0.70;0.53;;;8.50;99.90;;;;;;5091992;28;20531;-73
2023/01/16 14:05:12;;;;;;;2.10;0.60;;;;;;;;;;5080098;28;20446;-73
2023/01/16 14:10:52;;;;;;;0.70;0.40;;;;;;;;;;5092140;28;20422;-73
2023/01/16 14:13:23;;;;;;;0.70;0.40;;;;;;;;;;5091538;28;20944;-73
2023/01/16 14:18:42;;;;;;;1.00;0.50;;;;;;;;;;5090812;28;20452;-71
2023/01/16 14:21:16;;;;;;;0.60;0.30;;;;;;;;;;5091828;28;20449;-71
2023/01/16 14:24:00;;;;;;;0.60;0.40;;;;;;;;;;5091576;28;20479;-73
2023/01/16 14:26:36;;;;;;;0.60;0.40;;;;;;;;;;5090164;28;20867;-74
2023/01/16 14:29:05;;;;;;;0.67;0.40;;;;;;;;;;5091293;28;20540;-73
2023/01/16 14:31:38;;;;;;;0.60;0.40;;;;;;;;;;5090800;28;20444;-74
2023/01/16 14:34:16;;;;;;;0.70;0.60;;;8.80;99.90;;;;;;5091457;28;20905;-73
2023/01/16 14:36:46;;;;;;;0.60;0.40;;;7.60;99.90;;;;;;5091105;28;20975;-73
2023/01/16 14:39:28;;;;;;;0.70;0.40;;;7.50;99.90;;;;;;5091130;28;20854;-73
2023/01/16 14:56:19;;;;;;;0.60;0.40;;;;;;;;;;5090042;28;20972;-74
2023/01/16 14:58:49;;;;;;;0.60;0.40;;;;;;;;;;5090479;28;20445;-73
2023/01/16 15:04:05;;;;;;;0.60;0.40;;;;;;;;;;5085241;28;20923;-72